createdAt,value
2017-11-23T00:00:27.966Z,13.00
2017-11-23T00:02:55.457Z,15.80
2017-11-23T00:05:23.720Z,13.05
2017-11-23T00:07:51.215Z,14.10
2017-11-23T00:10:18.708Z,16.60
2017-11-23T00:12:46.236Z,17.75
2017-11-23T00:15:13.729Z,17.30
2017-11-23T00:17:42.018Z,18.08
2017-11-23T00:20:09.529Z,19.37
2017-11-23T00:22:36.997Z,17.58
2017-11-23T00:25:04.524Z,16.00
2017-11-23T00:27:32.765Z,20.60
2017-11-23T00:30:00.241Z,19.15
2017-11-23T00:32:27.744Z,18.83
2017-11-23T00:34:55.230Z,21.90
2017-11-23T00:37:22.733Z,18.05
2017-11-23T00:39:50.211Z,14.60
2017-11-23T00:42:17.712Z,14.15
2017-11-23T00:44:45.227Z,15.57
2017-11-23T00:47:13.472Z,11.52
2017-11-23T00:49:41.764Z,13.13
2017-11-23T00:52:10.001Z,13.65
2017-11-23T00:54:37.505Z,14.15
2017-11-23T00:57:05.761Z,13.35
2017-11-23T00:59:33.243Z,12.05
2017-11-23T01:02:01.508Z,9.55
2017-11-23T01:04:28.997Z,12.07
2017-11-23T01:06:56.569Z,10.82
2017-11-23T01:09:24.044Z,10.88
2017-11-23T01:11:51.520Z,10.00
2017-11-23T01:14:19.012Z,12.15
2017-11-23T01:16:47.257Z,7.65
2017-11-23T01:19:14.761Z,14.43
2017-11-23T01:21:42.341Z,11.65
2017-11-23T01:24:09.808Z,14.77
2017-11-23T01:26:37.327Z,11.32
2017-11-23T01:29:05.565Z,13.52
2017-11-23T01:31:33.060Z,12.27
2017-11-23T01:34:01.291Z,11.18
2017-11-23T01:36:28.817Z,11.75
2017-11-23T01:38:56.308Z,12.20
2017-11-23T01:41:23.790Z,11.27
2017-11-23T01:43:51.276Z,8.40
2017-11-23T01:46:19.521Z,14.68
2017-11-23T01:48:47.033Z,12.55
2017-11-23T01:51:14.530Z,19.15
2017-11-23T01:53:42.055Z,13.50
2017-11-23T01:56:09.549Z,13.43
2017-11-23T01:58:37.058Z,11.85
2017-11-23T02:01:05.341Z,10.18
2017-11-23T02:03:32.819Z,10.13
2017-11-23T02:06:00.293Z,9.35
2017-11-23T02:08:27.820Z,12.85
2017-11-23T02:10:55.304Z,9.50
2017-11-23T02:13:22.847Z,8.55
2017-11-23T02:15:50.313Z,8.80
2017-11-23T02:18:17.969Z,10.77
2017-11-23T02:20:45.509Z,7.15
2017-11-23T02:23:13.765Z,7.00
2017-11-23T02:25:42.037Z,9.80
2017-11-23T02:28:09.509Z,11.50
2017-11-23T02:30:37.813Z,9.80
2017-11-23T02:33:05.282Z,14.05
2017-11-23T02:35:32.782Z,8.20
2017-11-23T02:38:00.292Z,7.43
2017-11-23T02:40:27.760Z,11.73
2017-11-23T02:42:55.302Z,8.60
2017-11-23T02:45:22.767Z,8.50
2017-11-23T02:47:50.270Z,12.10
2017-11-23T02:50:17.769Z,9.73
2017-11-23T02:52:46.057Z,7.65
2017-11-23T02:55:13.542Z,8.55
2017-11-23T02:57:41.012Z,9.15
2017-11-23T03:00:08.526Z,6.10
2017-11-23T03:02:36.005Z,8.80
2017-11-23T03:05:03.504Z,9.20
2017-11-23T03:07:30.984Z,7.80
2017-11-23T03:09:59.292Z,6.78
2017-11-23T03:12:26.765Z,6.18
2017-11-23T03:14:54.228Z,5.47
2017-11-23T03:17:21.759Z,7.82
2017-11-23T03:19:49.230Z,6.55
2017-11-23T03:22:16.744Z,10.57
2017-11-23T03:24:44.244Z,6.68
2017-11-23T03:27:11.718Z,7.70
2017-11-23T03:29:39.217Z,9.00
2017-11-23T03:32:06.680Z,8.52
2017-11-23T03:34:34.940Z,11.02
2017-11-23T03:37:02.420Z,8.77
2017-11-23T03:39:30.681Z,6.70
2017-11-23T03:41:58.168Z,11.38
2017-11-23T03:44:26.414Z,8.57
2017-11-23T03:46:53.924Z,7.78
2017-11-23T03:49:21.422Z,6.37
2017-11-23T03:51:48.888Z,8.63
2017-11-23T03:54:16.380Z,9.70
2017-11-23T03:56:44.609Z,6.60
2017-11-23T03:59:12.113Z,6.60
2017-11-23T04:01:40.357Z,7.57
2017-11-23T04:04:07.880Z,6.55
2017-11-23T04:06:35.391Z,6.78
2017-11-23T04:09:02.885Z,12.55
2017-11-23T04:11:30.353Z,6.75
2017-11-23T04:13:57.865Z,7.15
2017-11-23T04:16:26.245Z,6.40
2017-11-23T04:18:54.499Z,6.28
2017-11-23T04:21:21.971Z,6.47
2017-11-23T04:23:49.490Z,6.78
2017-11-23T04:26:17.037Z,6.07
2017-11-23T04:28:44.547Z,7.32
2017-11-23T04:31:12.016Z,7.00
2017-11-23T04:33:39.537Z,5.53
2017-11-23T04:36:07.020Z,6.68
2017-11-23T04:38:34.528Z,5.12
2017-11-23T04:41:02.016Z,11.88
2017-11-23T04:43:29.525Z,5.97
2017-11-23T04:45:57.743Z,5.30
2017-11-23T04:48:25.243Z,6.87
2017-11-23T04:50:52.745Z,5.85
2017-11-23T04:53:20.212Z,9.30
2017-11-23T04:55:47.689Z,6.60
2017-11-23T04:58:15.183Z,5.57
2017-11-23T05:00:43.445Z,10.68
2017-11-23T05:03:10.941Z,12.77
2017-11-23T05:05:38.414Z,17.37
2017-11-23T05:08:05.938Z,8.30
2017-11-23T05:10:34.168Z,7.93
2017-11-23T05:13:01.645Z,7.95
2017-11-23T05:15:29.142Z,8.07
2017-11-23T05:17:57.372Z,6.62
2017-11-23T05:20:24.873Z,7.22
2017-11-23T05:22:53.121Z,8.85
2017-11-23T05:25:20.624Z,6.75
2017-11-23T05:27:49.052Z,9.70
2017-11-23T05:30:16.527Z,10.70
2017-11-23T05:32:44.030Z,12.57
2017-11-23T05:35:11.533Z,16.35
2017-11-23T05:37:39.033Z,12.05
2017-11-23T05:40:06.513Z,12.52
2017-11-23T05:42:34.038Z,12.10
2017-11-23T05:45:02.274Z,25.85
2017-11-23T05:47:30.484Z,22.62
2017-11-23T05:49:58.778Z,15.48
2017-11-23T05:52:27.021Z,16.33
2017-11-23T05:54:54.540Z,19.23
2017-11-23T05:57:22.040Z,15.35
2017-11-23T05:59:49.516Z,13.75
2017-11-23T06:02:17.779Z,12.57
2017-11-23T06:04:45.272Z,18.58
2017-11-23T06:07:12.771Z,17.90
2017-11-23T06:09:40.268Z,16.40
2017-11-23T06:12:07.740Z,10.13
2017-11-23T06:14:36.017Z,12.10
2017-11-23T06:17:04.263Z,11.18
2017-11-23T06:19:31.737Z,13.05
2017-11-23T06:22:00.012Z,8.32
2017-11-23T06:24:28.425Z,10.52
2017-11-23T06:26:55.928Z,14.70
2017-11-23T06:29:23.461Z,8.23
2017-11-23T06:31:50.936Z,10.32
2017-11-23T06:34:18.424Z,15.30
2017-11-23T06:36:45.894Z,10.55
2017-11-23T06:39:14.159Z,14.10
2017-11-23T06:41:41.631Z,16.33
2017-11-23T06:44:09.882Z,16.77
2017-11-23T06:46:37.706Z,14.27
2017-11-23T06:49:05.187Z,18.67
2017-11-23T06:51:32.678Z,11.23
2017-11-23T06:54:00.183Z,11.15
2017-11-23T06:56:27.649Z,9.13
2017-11-23T06:58:55.119Z,15.27
2017-11-23T07:01:22.612Z,28.95
2017-11-23T07:03:50.081Z,12.25
2017-11-23T07:06:18.422Z,12.00
2017-11-23T07:08:45.905Z,10.25
2017-11-23T07:11:13.381Z,16.97
2017-11-23T07:13:41.629Z,8.70
2017-11-23T07:16:09.129Z,9.77
2017-11-23T07:18:36.636Z,13.98
2017-11-23T07:21:04.146Z,7.87
2017-11-23T07:23:32.396Z,13.27
2017-11-23T07:25:59.869Z,18.08
2017-11-23T07:28:29.988Z,18.45
2017-11-23T07:30:58.243Z,12.13
2017-11-23T07:33:25.749Z,14.93
2017-11-23T07:35:53.243Z,16.12
2017-11-23T07:38:20.702Z,15.48
2017-11-23T07:40:48.220Z,15.40
2017-11-23T07:43:15.701Z,13.15
2017-11-23T07:45:43.172Z,15.18
2017-11-23T07:48:10.720Z,32.55
2017-11-23T07:50:38.235Z,27.35
2017-11-23T07:53:06.461Z,17.80
2017-11-23T07:55:33.957Z,29.33
2017-11-23T07:58:01.449Z,16.25
2017-11-23T08:00:28.959Z,21.50
2017-11-23T08:02:56.424Z,20.25
2017-11-23T08:05:24.037Z,21.00
2017-11-23T08:07:51.529Z,22.30
2017-11-23T08:10:19.029Z,25.37
2017-11-23T08:12:47.302Z,15.07
2017-11-23T08:15:15.544Z,24.45
2017-11-23T08:17:43.031Z,23.98
2017-11-23T08:20:11.299Z,28.52
2017-11-23T08:22:38.801Z,18.95
2017-11-23T08:25:06.322Z,20.67
2017-11-23T08:27:33.785Z,17.20
2017-11-23T08:30:02.098Z,20.70
2017-11-23T08:32:29.607Z,24.85
2017-11-23T08:34:57.097Z,21.33
2017-11-23T08:37:24.607Z,20.75
2017-11-23T08:39:52.091Z,32.80
2017-11-23T08:42:19.608Z,23.77
2017-11-23T08:44:47.090Z,25.20
2017-11-23T08:47:14.682Z,20.37
2017-11-23T08:49:42.940Z,20.45
2017-11-23T08:52:10.438Z,19.70
2017-11-23T08:54:43.601Z,28.05
2017-11-23T08:57:11.828Z,24.35
2017-11-23T08:59:39.332Z,27.33
2017-11-23T09:02:06.820Z,20.62
2017-11-23T09:04:34.298Z,25.65
2017-11-23T09:07:01.811Z,23.73
2017-11-23T09:09:29.274Z,20.45
2017-11-23T09:11:58.004Z,20.77
2017-11-23T09:14:25.467Z,23.27
2017-11-23T09:16:53.824Z,21.10
2017-11-23T09:19:21.337Z,23.45
2017-11-23T09:21:48.850Z,25.17
2017-11-23T09:24:16.356Z,28.00
2017-11-23T09:26:43.820Z,21.92
2017-11-23T09:29:11.320Z,32.88
2017-11-23T09:31:38.839Z,29.40
2017-11-23T09:34:06.320Z,37.35
2017-11-23T09:36:34.565Z,22.80
2017-11-23T09:39:02.082Z,21.48
2017-11-23T09:41:29.556Z,20.65
2017-11-23T09:43:57.111Z,17.10
2017-11-23T09:46:24.593Z,23.95
2017-11-23T09:48:52.107Z,22.45
2017-11-23T09:51:19.593Z,25.67
2017-11-23T09:53:47.067Z,19.55
2017-11-23T09:56:14.562Z,35.58
2017-11-23T09:58:42.811Z,24.15
2017-11-23T10:01:10.323Z,21.48
2017-11-23T10:03:37.809Z,23.25
2017-11-23T10:06:05.294Z,26.42
2017-11-23T10:08:32.787Z,19.98
2017-11-23T10:11:00.266Z,25.98
2017-11-23T10:13:27.728Z,22.08
2017-11-23T10:15:55.217Z,28.48
2017-11-23T10:18:23.521Z,22.87
2017-11-23T10:20:50.980Z,26.52
2017-11-23T10:23:19.245Z,26.48
2017-11-23T10:25:46.737Z,21.87
2017-11-23T10:28:14.253Z,23.17
2017-11-23T10:30:41.755Z,25.20
2017-11-23T10:33:09.235Z,33.65
2017-11-23T10:35:36.740Z,31.25
2017-11-23T10:38:04.209Z,33.33
2017-11-23T10:40:32.460Z,30.73
2017-11-23T10:42:59.960Z,31.33
2017-11-23T10:45:27.461Z,26.42
2017-11-23T10:47:54.933Z,21.02
2017-11-23T10:50:22.421Z,20.02
2017-11-23T10:52:50.673Z,24.23
2017-11-23T10:55:18.180Z,21.50
2017-11-23T10:57:45.677Z,24.00
2017-11-23T11:00:13.162Z,25.12
2017-11-23T11:02:40.680Z,18.05
2017-11-23T11:05:08.157Z,23.05
2017-11-23T11:07:35.678Z,21.65
2017-11-23T11:10:03.161Z,20.25
2017-11-23T11:12:30.681Z,22.83
2017-11-23T11:14:58.936Z,25.85
2017-11-23T11:17:26.401Z,18.23
2017-11-23T11:19:54.670Z,18.27
2017-11-23T11:22:22.173Z,27.87
2017-11-23T11:24:49.683Z,20.00
2017-11-23T11:27:17.184Z,14.80
2017-11-23T11:29:44.715Z,14.93
2017-11-23T11:32:13.002Z,13.07
2017-11-23T11:34:41.244Z,18.95
2017-11-23T11:37:08.741Z,16.15
2017-11-23T11:39:36.212Z,23.48
2017-11-23T11:42:03.705Z,20.60
2017-11-23T11:44:31.184Z,15.00
2017-11-23T11:46:58.709Z,18.30
2017-11-23T11:49:26.185Z,20.67
2017-11-23T11:51:53.667Z,15.05
2017-11-23T11:54:21.184Z,16.50
2017-11-23T11:56:48.665Z,17.98
2017-11-23T11:59:16.129Z,13.02
2017-11-23T12:01:43.633Z,11.90
2017-11-23T12:04:11.143Z,15.70
2017-11-23T12:06:38.672Z,11.45
2017-11-23T12:09:06.167Z,13.50
2017-11-23T12:11:33.637Z,15.63
2017-11-23T12:14:12.933Z,17.58
2017-11-23T12:16:53.097Z,21.98
2017-11-23T12:19:20.584Z,17.37
2017-11-23T12:21:54.619Z,16.60
2017-11-23T12:24:31.569Z,11.80
2017-11-23T12:26:59.074Z,13.00
2017-11-23T12:29:38.530Z,13.98
2017-11-23T12:32:06.039Z,15.35
2017-11-23T12:34:34.282Z,13.15
2017-11-23T12:37:01.790Z,24.63
2017-11-23T12:39:30.028Z,12.47
2017-11-23T12:41:57.670Z,11.03
2017-11-23T12:44:25.171Z,11.20
2017-11-23T12:46:52.673Z,12.27
2017-11-23T12:49:20.178Z,6.97
2017-11-23T12:51:47.650Z,14.25
2017-11-23T12:54:15.128Z,10.50
2017-11-23T12:56:42.638Z,16.83
2017-11-23T12:59:10.876Z,12.40
2017-11-23T13:01:38.417Z,10.80
2017-11-23T13:04:06.668Z,42.43
2017-11-23T13:06:34.128Z,15.63
2017-11-23T13:09:01.625Z,8.83
2017-11-23T13:11:29.107Z,10.33
2017-11-23T13:13:56.630Z,7.43
2017-11-23T13:16:24.883Z,10.10
2017-11-23T13:18:52.400Z,6.87
2017-11-23T13:21:19.890Z,12.40
2017-11-23T13:23:47.369Z,9.60
2017-11-23T13:26:14.852Z,9.20
2017-11-23T13:28:42.353Z,11.37
2017-11-23T13:31:09.839Z,11.60
2017-11-23T13:33:37.323Z,11.10
2017-11-23T13:36:05.560Z,6.30
2017-11-23T13:38:33.053Z,5.27
2017-11-23T13:41:01.298Z,4.40
2017-11-23T13:43:28.794Z,6.23
2017-11-23T13:45:56.279Z,3.60
2017-11-23T13:48:23.736Z,3.43
2017-11-23T13:50:51.232Z,3.73
2017-11-23T13:53:18.688Z,6.43
2017-11-23T13:55:46.201Z,9.13
2017-11-23T13:58:13.681Z,5.10
2017-11-23T14:00:41.689Z,6.37
2017-11-23T14:03:10.688Z,8.33
2017-11-23T14:05:38.962Z,9.17
2017-11-23T14:08:06.480Z,11.50
2017-11-23T14:10:33.979Z,9.23
2017-11-23T14:13:01.433Z,8.60
2017-11-23T14:15:28.916Z,7.80
2017-11-23T14:17:56.380Z,8.90
2017-11-23T14:20:23.874Z,5.23
2017-11-23T14:22:51.340Z,8.00
2017-11-23T14:25:18.851Z,7.90
2017-11-23T14:27:47.097Z,5.43
2017-11-23T14:30:14.588Z,8.43
2017-11-23T14:32:42.100Z,5.30
2017-11-23T14:35:09.565Z,8.50
2017-11-23T14:37:37.016Z,9.47
2017-11-23T14:40:04.532Z,4.67
2017-11-23T14:42:32.481Z,6.33
2017-11-23T14:45:00.712Z,7.43
2017-11-23T14:47:28.990Z,8.30
2017-11-23T14:49:56.452Z,6.10
2017-11-23T14:52:23.972Z,10.83
2017-11-23T14:54:51.430Z,8.43
2017-11-23T14:57:19.003Z,12.20
2017-11-23T14:59:46.492Z,7.83
2017-11-23T15:02:13.965Z,4.93
2017-11-23T15:04:41.499Z,10.70
2017-11-23T15:07:08.961Z,6.97
2017-11-23T15:09:36.461Z,5.17
2017-11-23T15:12:04.683Z,6.73
2017-11-23T15:14:32.152Z,22.30
2017-11-23T15:16:59.679Z,20.20
2017-11-23T15:19:27.163Z,22.93
2017-11-23T15:21:54.699Z,19.20
2017-11-23T15:24:22.204Z,19.80
2017-11-23T15:26:49.705Z,33.10
2017-11-23T15:29:17.240Z,26.20
2017-11-23T15:31:44.714Z,23.73
2017-11-23T15:34:12.978Z,24.77
2017-11-23T15:36:41.229Z,38.75
2017-11-23T15:39:08.741Z,27.10
2017-11-23T15:41:36.227Z,25.13
2017-11-23T15:44:03.696Z,30.13
2017-11-23T15:46:31.221Z,20.58
2017-11-23T15:48:58.742Z,15.90
2017-11-23T15:51:26.281Z,13.45
2017-11-23T15:53:53.769Z,16.73
2017-11-23T15:56:22.052Z,10.30
2017-11-23T15:58:50.324Z,11.20
2017-11-23T16:01:18.595Z,10.80
2017-11-23T16:03:46.892Z,13.98
2017-11-23T16:06:15.193Z,10.98
2017-11-23T16:08:42.729Z,8.13
2017-11-23T16:11:11.023Z,14.18
2017-11-23T16:13:38.544Z,14.05
2017-11-23T16:16:06.042Z,20.35
2017-11-23T16:18:33.596Z,14.45
2017-11-23T16:21:01.099Z,16.62
2017-11-23T16:23:28.606Z,13.90
2017-11-23T16:25:56.865Z,16.42
2017-11-23T16:28:25.137Z,15.13
2017-11-23T16:30:53.414Z,13.13
2017-11-23T16:33:20.908Z,15.05
2017-11-23T16:35:54.210Z,34.33
2017-11-23T16:41:41.408Z,12.02
2017-11-23T16:47:03.771Z,21.65
2017-11-23T16:52:33.715Z,16.92
2017-11-23T16:58:12.084Z,12.52
2017-11-23T17:00:45.340Z,10.35
2017-11-23T17:03:19.165Z,8.95
2017-11-23T17:05:52.361Z,5.32
2017-11-23T17:08:22.380Z,8.73
2017-11-23T17:10:55.466Z,10.88
2017-11-23T17:13:28.753Z,10.75
2017-11-23T17:16:06.629Z,16.37
2017-11-23T17:18:37.692Z,10.02
2017-11-23T17:21:05.919Z,9.25
2017-11-23T17:23:33.445Z,9.70
2017-11-23T17:26:00.924Z,9.18
2017-11-23T17:28:28.417Z,11.35
2017-11-23T17:30:55.903Z,15.25
2017-11-23T17:33:24.123Z,9.65
2017-11-23T17:35:51.640Z,16.15
2017-11-23T17:38:19.868Z,8.68
2017-11-23T17:40:47.373Z,10.25
2017-11-23T17:43:15.601Z,14.35
2017-11-23T17:45:43.111Z,10.50
2017-11-23T17:48:11.375Z,10.35
2017-11-23T17:50:38.853Z,8.48
2017-11-23T17:53:07.091Z,11.63
2017-11-23T17:55:34.608Z,7.87
2017-11-23T17:58:02.075Z,8.55
2017-11-23T18:00:29.599Z,9.13
2017-11-23T18:02:57.847Z,6.45
2017-11-23T18:05:25.370Z,10.90
2017-11-23T18:07:52.856Z,8.60
2017-11-23T18:10:20.366Z,10.13
2017-11-23T18:12:47.826Z,9.82
2017-11-23T18:15:15.329Z,8.30
2017-11-23T18:17:42.821Z,10.07
2017-11-23T18:20:11.053Z,11.30
2017-11-23T18:22:38.605Z,11.43
2017-11-23T18:25:06.100Z,14.98
2017-11-23T18:27:33.589Z,10.23
2017-11-23T18:30:01.875Z,9.13
2017-11-23T18:32:29.349Z,14.75
2017-11-23T18:34:56.836Z,13.85
2017-11-23T18:37:24.359Z,13.75
2017-11-23T18:39:51.830Z,15.15
2017-11-23T18:42:19.336Z,15.23
2017-11-23T18:44:46.808Z,15.27
2017-11-23T18:47:15.074Z,17.65
2017-11-23T18:49:42.586Z,14.93
2017-11-23T18:52:10.099Z,16.58
2017-11-23T18:54:38.374Z,26.58
2017-11-23T18:57:05.832Z,34.25
2017-11-23T18:59:34.137Z,37.17
2017-11-23T19:02:01.609Z,41.10
2017-11-23T19:04:29.086Z,56.63
2017-11-23T19:06:56.623Z,83.15
2017-11-23T19:09:24.097Z,72.93
2017-11-23T19:11:51.641Z,71.78
2017-11-23T19:14:19.117Z,72.35
2017-11-23T19:16:46.611Z,68.65
2017-11-23T19:19:14.104Z,64.93
2017-11-23T19:21:41.598Z,60.25
2017-11-23T19:24:09.089Z,63.95
2017-11-23T19:26:36.582Z,40.38
2017-11-23T19:29:04.106Z,53.45
2017-11-23T19:31:31.596Z,59.80
2017-11-23T19:33:59.136Z,74.03
2017-11-23T19:36:27.379Z,79.75
2017-11-23T19:38:54.852Z,91.65
2017-11-23T19:41:22.356Z,83.10
2017-11-23T19:43:49.841Z,82.22
2017-11-23T19:46:17.340Z,83.60
2017-11-23T19:48:44.816Z,82.07
2017-11-23T19:51:13.040Z,55.08
2017-11-23T19:53:40.549Z,64.10
2017-11-23T19:56:08.823Z,48.42
2017-11-23T19:58:37.172Z,43.40
2017-11-23T20:01:04.677Z,37.03
2017-11-23T20:03:32.176Z,40.47
2017-11-23T20:05:59.681Z,40.75
2017-11-23T20:08:27.943Z,41.10
2017-11-23T20:10:55.425Z,37.03
2017-11-23T20:13:22.892Z,44.35
2017-11-23T20:15:50.404Z,37.00
2017-11-23T20:18:17.910Z,40.67
2017-11-23T20:20:45.417Z,34.80
2017-11-23T20:23:15.594Z,34.95
2017-11-23T20:25:43.117Z,33.88
2017-11-23T20:28:10.597Z,36.17
2017-11-23T20:30:38.878Z,41.70
2017-11-23T20:33:06.404Z,40.67
2017-11-23T20:35:33.885Z,42.90
2017-11-23T20:38:02.125Z,49.63
2017-11-23T20:40:29.625Z,48.72
2017-11-23T20:42:57.979Z,43.83
2017-11-23T20:45:26.253Z,40.40
2017-11-23T20:47:55.300Z,43.75
2017-11-23T20:50:22.965Z,39.92
2017-11-23T20:52:50.496Z,36.33
2017-11-23T20:55:18.825Z,34.63
2017-11-23T20:57:46.328Z,29.75
2017-11-23T21:00:14.582Z,32.35
2017-11-23T21:02:42.107Z,26.23
2017-11-23T21:05:09.573Z,26.87
2017-11-23T21:07:37.084Z,26.73
2017-11-23T21:10:05.341Z,28.23
2017-11-23T21:12:33.145Z,30.23
2017-11-23T21:15:00.655Z,23.73
2017-11-23T21:17:28.159Z,30.12
2017-11-23T21:19:55.682Z,29.50
2017-11-23T21:22:23.164Z,29.35
2017-11-23T21:24:51.423Z,29.42
2017-11-23T21:27:18.995Z,28.40
2017-11-23T21:29:47.286Z,27.52
2017-11-23T21:32:15.532Z,31.85
2017-11-23T21:34:54.258Z,26.77
2017-11-23T21:37:21.740Z,35.15
2017-11-23T21:39:49.227Z,39.60
2017-11-23T21:42:16.838Z,38.67
2017-11-23T21:44:44.445Z,42.38
2017-11-23T21:47:12.066Z,36.40
2017-11-23T21:49:39.554Z,36.05
2017-11-23T21:52:07.089Z,38.33
2017-11-23T21:54:35.379Z,31.23
2017-11-23T21:57:03.661Z,21.20
2017-11-23T21:59:31.925Z,23.23
2017-11-23T22:02:00.173Z,25.98
2017-11-23T22:04:28.541Z,25.55
2017-11-23T22:06:56.028Z,25.30
2017-11-23T22:09:24.293Z,39.30
2017-11-23T22:11:51.771Z,50.15
2017-11-23T22:14:20.067Z,44.85
2017-11-23T22:16:47.550Z,50.22
2017-11-23T22:19:15.070Z,53.90
2017-11-23T22:21:43.312Z,52.62
2017-11-23T22:24:10.778Z,35.10
2017-11-23T22:26:38.281Z,31.45
2017-11-23T22:29:05.740Z,40.40
2017-11-23T22:31:33.253Z,28.33
2017-11-23T22:34:00.712Z,24.20
2017-11-23T22:36:28.241Z,22.30
2017-11-23T22:38:55.715Z,23.50
2017-11-23T22:41:23.252Z,19.08
2017-11-23T22:43:50.772Z,17.42
2017-11-23T22:46:19.009Z,20.15
2017-11-23T22:48:46.522Z,20.37
2017-11-23T22:51:14.014Z,23.65
2017-11-23T22:53:41.484Z,22.00
2017-11-23T22:56:08.992Z,20.25
2017-11-23T22:58:37.293Z,23.73
2017-11-23T23:01:04.785Z,23.27
2017-11-23T23:03:32.257Z,26.15
2017-11-23T23:05:59.750Z,25.02
2017-11-23T23:08:27.981Z,19.17
2017-11-23T23:10:55.499Z,17.42
2017-11-23T23:13:23.001Z,20.83
2017-11-23T23:15:50.465Z,20.25
2017-11-23T23:18:17.977Z,19.50
2017-11-23T23:20:45.470Z,16.98
2017-11-23T23:23:12.927Z,16.80
2017-11-23T23:25:40.427Z,19.12
2017-11-23T23:28:08.689Z,17.02
2017-11-23T23:30:36.184Z,22.92
2017-11-23T23:33:03.691Z,18.85
2017-11-23T23:35:31.193Z,24.58
2017-11-23T23:37:58.701Z,20.90
2017-11-23T23:40:26.177Z,23.23
2017-11-23T23:42:53.685Z,14.57
2017-11-23T23:45:21.145Z,19.05
2017-11-23T23:47:48.683Z,24.85
2017-11-23T23:50:16.911Z,17.85
2017-11-23T23:52:44.423Z,21.67
2017-11-23T23:55:11.892Z,16.17
2017-11-23T23:57:39.400Z,23.52
